createdAt,value
2023-02-23T14:00:58.640Z,38.81
2023-02-23T14:04:58.498Z,32.54
2023-02-23T14:08:58.472Z,32.15
2023-02-23T14:12:58.413Z,31.94
2023-02-23T14:16:58.399Z,31.70
2023-02-23T14:20:58.751Z,31.59
2023-02-23T14:24:58.349Z,31.28
2023-02-23T14:28:58.310Z,31.17
2023-02-23T14:32:58.242Z,30.81
2023-02-23T14:36:58.243Z,30.61
2023-02-23T14:40:58.408Z,30.59
2023-02-23T14:44:58.454Z,30.51
2023-02-23T14:48:58.599Z,30.58
2023-02-23T14:52:58.783Z,30.66
2023-02-23T14:56:58.867Z,30.63
2023-02-23T15:00:58.982Z,30.70
2023-02-23T15:04:59.197Z,30.61
2023-02-23T15:08:59.197Z,30.65
2023-02-23T15:12:59.767Z,30.62
2023-02-23T15:16:59.540Z,30.58
2023-02-23T15:20:59.674Z,30.58
2023-02-23T15:24:59.751Z,30.54
2023-02-23T15:28:59.865Z,30.50
2023-02-23T15:33:00.066Z,30.50
2023-02-23T15:37:00.311Z,30.45
2023-02-23T15:41:00.098Z,30.49
2023-02-23T15:45:00.374Z,30.45
2023-02-23T15:49:00.243Z,30.46
2023-02-23T15:53:00.321Z,30.45
2023-02-23T15:57:00.326Z,30.41
2023-02-23T16:01:00.400Z,30.43
2023-02-23T16:05:00.419Z,30.42
2023-02-23T16:09:00.469Z,30.37
2023-02-23T16:13:00.475Z,30.41
2023-02-23T16:17:11.154Z,30.45
2023-02-23T16:21:01.486Z,30.43
2023-02-23T16:25:00.444Z,30.37
2023-02-23T16:29:00.393Z,30.39
2023-02-23T16:33:00.423Z,30.35
2023-02-23T16:37:00.310Z,30.39
2023-02-23T16:41:00.326Z,30.38
2023-02-23T16:45:00.399Z,30.35
2023-02-23T16:49:00.424Z,30.29
2023-02-23T16:53:00.460Z,30.31
2023-02-23T16:57:00.498Z,30.29
2023-02-23T17:01:00.574Z,30.25
2023-02-23T17:05:00.563Z,30.21
2023-02-23T17:09:00.647Z,30.20
2023-02-23T17:13:00.668Z,30.20
2023-02-23T17:17:00.791Z,30.10
2023-02-23T17:21:00.794Z,30.13
2023-02-23T17:25:00.832Z,30.05
2023-02-23T17:29:00.898Z,30.08
2023-02-23T17:33:01.121Z,30.04
2023-02-23T17:37:00.975Z,30.04
2023-02-23T17:41:01.007Z,30.04
2023-02-23T17:45:01.074Z,29.96
2023-02-23T17:49:01.104Z,29.96
2023-02-23T17:53:01.164Z,29.94
2023-02-23T17:57:01.215Z,29.91
2023-02-23T18:01:01.263Z,29.82
2023-02-23T18:05:01.302Z,29.82
2023-02-23T18:09:01.379Z,29.78
2023-02-23T18:13:01.457Z,29.75
2023-02-23T18:17:01.461Z,29.75
2023-02-23T18:21:01.527Z,29.78
2023-02-23T18:25:01.630Z,29.70
2023-02-23T18:29:03.305Z,29.69
2023-02-23T18:33:01.811Z,29.65
2023-02-23T18:37:01.773Z,29.62
2023-02-23T18:41:01.839Z,29.62
2023-02-23T18:45:01.926Z,29.55
2023-02-23T18:49:01.992Z,29.54
2023-02-23T18:53:02.058Z,29.57
2023-02-23T18:57:02.140Z,29.48
2023-02-23T19:01:02.254Z,29.46
2023-02-23T19:05:02.325Z,29.42
2023-02-23T19:09:02.371Z,29.42
2023-02-23T19:13:02.424Z,29.42
2023-02-23T19:17:02.536Z,29.38
2023-02-23T19:21:02.664Z,29.41
2023-02-23T19:25:02.709Z,29.30
2023-02-23T19:29:02.753Z,29.31
2023-02-23T19:33:03.105Z,29.27
2023-02-23T19:37:02.928Z,29.22
2023-02-23T19:41:03.013Z,29.22
2023-02-23T19:45:03.109Z,29.19
2023-02-23T19:49:03.208Z,29.19
2023-02-23T19:53:03.301Z,29.15
2023-02-23T19:57:03.410Z,29.12
2023-02-23T20:01:03.527Z,29.10
2023-02-23T20:05:03.821Z,29.09
2023-02-23T20:09:03.693Z,29.06
2023-02-23T20:13:03.835Z,29.01
2023-02-23T20:17:03.985Z,28.98
2023-02-23T20:21:04.053Z,28.98
2023-02-23T20:25:04.146Z,28.94
2023-02-23T20:29:04.272Z,28.90
2023-02-23T20:33:04.345Z,28.88
2023-02-23T20:37:04.439Z,28.84
2023-02-23T20:41:04.581Z,28.85
2023-02-23T20:45:04.691Z,28.78
2023-02-23T20:49:04.758Z,28.75
2023-02-23T20:53:04.901Z,28.74
2023-02-23T20:57:05.005Z,28.74
2023-02-23T21:01:05.145Z,28.68
2023-02-23T21:05:05.273Z,28.66
2023-02-23T21:09:05.401Z,28.57
2023-02-23T21:13:05.469Z,28.60
2023-02-23T21:17:05.625Z,28.55
2023-02-23T21:21:05.741Z,28.50
2023-02-23T21:25:05.829Z,28.50
2023-02-23T21:29:05.974Z,28.51
2023-02-23T21:33:06.257Z,28.46
2023-02-23T21:37:06.216Z,28.39
2023-02-23T21:41:06.370Z,28.40
2023-02-23T21:45:06.457Z,28.36
2023-02-23T21:49:06.582Z,28.31
2023-02-23T21:53:06.686Z,28.30
2023-02-23T21:57:06.840Z,28.26
2023-02-23T22:01:06.976Z,28.20
2023-02-23T22:05:07.111Z,28.20
2023-02-23T22:09:07.215Z,28.18
2023-02-23T22:13:07.359Z,28.18
2023-02-23T22:17:07.492Z,28.10
2023-02-23T22:21:07.610Z,28.03
2023-02-23T22:25:07.769Z,28.03
2023-02-23T22:29:07.886Z,28.08
2023-02-23T22:33:08.178Z,27.96
2023-02-23T22:37:08.142Z,27.94
2023-02-23T22:41:08.273Z,27.97
2023-02-23T22:45:08.387Z,27.91
2023-02-23T22:49:08.515Z,27.82
2023-02-23T22:53:08.640Z,27.81
2023-02-23T22:57:08.789Z,27.82
2023-02-23T23:01:08.888Z,27.76
2023-02-23T23:05:09.013Z,27.75
2023-02-23T23:09:09.137Z,27.66
2023-02-23T23:13:09.289Z,27.71
2023-02-23T23:17:09.466Z,27.68
2023-02-23T23:21:09.537Z,27.66
2023-02-23T23:25:09.685Z,27.62
2023-02-23T23:29:09.799Z,27.61
2023-02-23T23:33:10.098Z,27.55
2023-02-23T23:37:10.046Z,27.55
2023-02-23T23:41:10.181Z,27.52
2023-02-23T23:45:10.316Z,27.48
2023-02-23T23:49:10.426Z,27.46
2023-02-23T23:53:10.603Z,27.42
2023-02-23T23:57:10.682Z,27.42
